METAR Data
IDs: Format: Raw Decoded Include TAF

Data at: 1531 UTC 27 Nov 2021

LIMZ 271520Z AUTO 33005KT 0150 R21/0450N FG VV002 03/03 Q0993